Time;durP1;ratioP1;P1;durP2;ratioP2;P2;SDS_P1;SDS_P2;PMS_P1;PMS_P2;Temp;Humidity;BMP_temperature;BMP_pressure;BME280_temperature;BME280_humidity;BME280_pressure;Samples;Min_cycle;Max_cycle;Signal;HPM_P1;HPM_P2
2023/05/05 00:00:58;;;;;;;6.00;2.05;;;10.20;57.80;;;;;;5084703;28;20028;-86
2023/05/05 00:03:24;;;;;;;3.45;2.28;;;10.20;57.60;;;;;;5097214;28;20473;-88
2023/05/05 00:05:53;;;;;;;3.90;2.15;;;10.20;57.60;;;;;;5087762;28;20052;-87
2023/05/05 00:08:21;;;;;;;2.95;2.15;;;10.10;57.60;;;;;;5078819;28;20024;-85
2023/05/05 00:10:49;;;;;;;4.93;2.70;;;10.10;57.60;;;;;;5113620;28;20118;-86
2023/05/05 00:13:15;;;;;;;8.73;2.55;;;10.10;57.90;;;;;;5107508;28;20042;-85
2023/05/05 00:15:42;;;;;;;3.47;2.50;;;10.10;58.00;;;;;;5101693;28;20127;-86
2023/05/05 00:18:09;;;;;;;4.45;2.40;;;10.00;58.60;;;;;;5101666;28;20079;-86
2023/05/05 00:20:35;;;;;;;3.25;1.90;;;9.90;58.80;;;;;;5096576;28;20024;-85
2023/05/05 00:23:01;;;;;;;6.03;2.42;;;9.90;59.20;;;;;;5110646;28;20073;-85
2023/05/05 00:25:28;;;;;;;4.15;2.50;;;9.80;58.90;;;;;;5080667;28;20028;-85
2023/05/05 00:27:54;;;;;;;5.15;2.60;;;9.80;59.50;;;;;;5110139;28;20381;-84
2023/05/05 00:30:20;;;;;;;3.30;2.33;;;9.70;59.50;;;;;;5106032;28;20036;-83
2023/05/05 00:32:49;;;;;;;4.97;2.35;;;9.70;59.40;;;;;;5105998;28;20047;-83
2023/05/05 00:35:18;;;;;;;4.25;2.33;;;9.70;59.30;;;;;;5119207;28;20377;-85
2023/05/05 00:37:44;;;;;;;4.60;2.15;;;9.70;60.10;;;;;;5123588;28;20012;-85
2023/05/05 00:40:10;;;;;;;3.65;2.53;;;9.60;60.10;;;;;;5119975;28;20032;-85
2023/05/05 00:42:41;;;;;;;5.90;2.75;;;9.60;60.10;;;;;;5096627;28;20037;-86
2023/05/05 00:45:08;;;;;;;3.17;2.50;;;9.50;60.40;;;;;;5090422;28;20475;-86
2023/05/05 00:47:35;;;;;;;3.97;2.42;;;9.50;60.20;;;;;;5100833;28;20020;-83
2023/05/05 00:50:03;;;;;;;6.07;3.00;;;9.50;60.40;;;;;;5100177;28;20149;-84
2023/05/05 00:52:30;;;;;;;7.38;2.67;;;9.50;61.00;;;;;;5096760;28;20017;-85
2023/05/05 00:54:57;;;;;;;7.32;3.10;;;9.50;61.50;;;;;;5076656;28;20496;-86
2023/05/05 00:57:24;;;;;;;11.32;3.88;;;9.50;62.10;;;;;;5106632;28;20107;-83
2023/05/05 00:59:51;;;;;;;5.95;3.63;;;9.50;62.30;;;;;;5088946;28;20042;-85
2023/05/05 01:02:18;;;;;;;4.43;2.97;;;9.50;62.70;;;;;;5120961;28;20034;-84
2023/05/05 01:04:43;;;;;;;6.13;3.45;;;9.40;62.80;;;;;;5120254;28;20020;-84
2023/05/05 01:07:52;;;;;;;7.90;3.55;;;9.40;63.10;;;;;;5098099;28;20108;-87
2023/05/05 01:10:24;;;;;;;7.97;3.90;;;9.40;63.30;;;;;;5096519;28;20520;-87
2023/05/05 01:13:09;;;;;;;9.38;3.25;;;9.30;63.50;;;;;;5096076;28;20024;-87
2023/05/05 01:15:49;;;;;;;8.60;4.03;;;9.30;63.70;;;;;;5096202;28;20012;-87
2023/05/05 01:18:30;;;;;;;14.07;4.15;;;9.30;63.80;;;;;;5113512;28;20481;-87
2023/05/05 01:21:06;;;;;;;8.55;3.60;;;9.20;63.80;;;;;;5099961;28;20031;-86
2023/05/05 01:23:59;;;;;;;10.68;4.10;;;9.20;63.60;;;;;;5106006;28;20081;-86
2023/05/05 01:26:44;;;;;;;9.48;4.22;;;9.20;63.70;;;;;;5099720;28;20035;-85
2023/05/05 01:29:31;;;;;;;6.38;4.70;;;9.10;63.80;;;;;;5088980;28;20060;-84
2023/05/05 01:32:05;;;;;;;8.80;4.78;;;9.10;64.00;;;;;;5087252;28;20140;-85
2023/05/05 01:34:39;;;;;;;7.22;4.57;;;9.10;64.10;;;;;;5101140;28;20012;-84
2023/05/05 01:37:12;;;;;;;4.72;3.63;;;9.00;64.00;;;;;;5117627;28;20023;-85
2023/05/05 01:39:41;;;;;;;6.45;4.07;;;9.00;63.10;;;;;;5100484;28;20027;-85
2023/05/05 01:42:12;;;;;;;4.22;3.58;;;9.00;62.90;;;;;;5093200;28;20021;-85
2023/05/05 01:44:43;;;;;;;6.40;3.40;;;9.00;63.00;;;;;;5097394;28;20484;-85
2023/05/05 01:47:12;;;;;;;6.63;3.60;;;8.90;63.10;;;;;;5102691;28;20303;-84
2023/05/05 01:49:38;;;;;;;6.35;4.63;;;8.90;63.40;;;;;;5105003;28;20393;-84
2023/05/05 01:52:05;;;;;;;5.10;3.03;;;8.90;63.60;;;;;;5113556;28;20024;-84
2023/05/05 01:54:33;;;;;;;6.35;3.15;;;8.90;63.70;;;;;;5086453;28;20057;-86
2023/05/05 01:57:02;;;;;;;6.68;3.00;;;8.90;63.80;;;;;;5103340;28;20099;-85
2023/05/05 01:59:28;;;;;;;6.90;3.13;;;8.90;63.80;;;;;;5102133;28;20127;-84
2023/05/05 02:01:56;;;;;;;10.05;2.88;;;8.90;64.00;;;;;;5083187;28;20073;-84
2023/05/05 02:04:22;;;;;;;;;;;8.90;64.20;;;;;;5100874;28;20050;-84
2023/05/05 02:06:51;;;;;;;3.83;3.03;;;8.90;63.80;;;;;;5078206;28;19904;-84
2023/05/05 02:09:19;;;;;;;5.03;2.90;;;8.80;64.50;;;;;;5097303;28;20061;-84
2023/05/05 02:11:45;;;;;;;;;;;8.80;64.70;;;;;;5079006;28;20469;-85
2023/05/05 02:14:11;;;;;;;4.20;2.45;;;8.80;64.20;;;;;;5077207;28;19939;-88
2023/05/05 02:16:40;;;;;;;6.55;3.33;;;8.70;64.80;;;;;;5081147;28;20110;-86
2023/05/05 02:19:07;;;;;;;5.47;2.70;;;8.70;64.50;;;;;;5079271;28;20020;-85
2023/05/05 02:21:33;;;;;;;5.90;2.58;;;8.70;64.40;;;;;;5118439;28;20008;-85
2023/05/05 02:24:00;;;;;;;4.60;2.63;;;8.80;64.40;;;;;;5106062;28;20046;-85
2023/05/05 02:26:29;;;;;;;5.55;3.05;;;8.80;64.50;;;;;;5097398;28;20024;-86
2023/05/05 02:29:04;;;;;;;5.97;2.80;;;8.80;64.60;;;;;;5123662;28;20051;-85
2023/05/05 02:31:35;;;;;;;5.80;2.75;;;8.80;64.90;;;;;;5110146;28;20027;-85
2023/05/05 02:34:04;;;;;;;5.60;2.63;;;8.80;65.10;;;;;;5096558;28;20158;-83
2023/05/05 02:36:36;;;;;;;7.32;2.40;;;8.80;65.20;;;;;;5095241;28;20024;-85
2023/05/05 02:39:06;;;;;;;7.50;3.58;;;8.80;65.40;;;;;;5083401;28;20150;-84
2023/05/05 02:41:35;;;;;;;5.00;3.60;;;8.80;65.90;;;;;;5092515;28;20024;-82
2023/05/05 02:44:03;;;;;;;5.15;2.97;;;8.80;66.60;;;;;;5103106;28;20028;-82
2023/05/05 02:46:29;;;;;;;6.60;2.40;;;8.80;66.30;;;;;;5099815;28;20069;-83
2023/05/05 02:48:55;;;;;;;6.47;2.80;;;8.80;66.10;;;;;;5103784;28;20032;-85
2023/05/05 02:51:21;;;;;;;7.00;3.75;;;8.90;65.90;;;;;;5097464;28;20084;-81
2023/05/05 02:53:47;;;;;;;5.53;3.45;;;8.90;66.20;;;;;;5089243;28;20021;-84
2023/05/05 02:56:30;;;;;;;6.38;3.60;;;8.90;66.40;;;;;;5091799;28;20031;-82
2023/05/05 02:59:17;;;;;;;7.47;3.60;;;9.00;66.80;;;;;;5076337;28;20135;-83
2023/05/05 03:01:42;;;;;;;4.82;3.70;;;9.00;66.90;;;;;;5105961;28;20020;-85
2023/05/05 03:04:19;;;;;;;4.78;3.40;;;8.90;66.80;;;;;;5086178;28;20536;-85
2023/05/05 03:06:49;;;;;;;10.40;3.47;;;8.90;66.90;;;;;;5113521;28;20012;-84
2023/05/05 03:09:20;;;;;;;3.50;3.00;;;8.80;67.00;;;;;;5083499;28;20598;-83
2023/05/05 03:12:12;;;;;;;3.97;3.28;;;8.80;67.40;;;;;;5104170;28;20035;-83
2023/05/05 03:14:42;;;;;;;6.90;3.97;;;8.70;67.50;;;;;;5109009;28;20024;-86
2023/05/05 03:17:12;;;;;;;9.15;4.30;;;8.70;67.70;;;;;;5094736;28;20405;-83
2023/05/05 03:19:41;;;;;;;7.95;4.15;;;8.60;67.70;;;;;;5109521;28;20017;-84
2023/05/05 03:22:07;;;;;;;9.27;3.72;;;8.60;68.00;;;;;;5101112;28;20052;-85
2023/05/05 03:24:33;;;;;;;7.85;4.00;;;8.50;68.20;;;;;;5089317;28;20388;-84
2023/05/05 03:27:00;;;;;;;5.50;3.95;;;8.50;68.40;;;;;;5099961;28;20023;-84
2023/05/05 03:29:28;;;;;;;5.13;3.63;;;8.40;68.60;;;;;;5096340;28;20745;-85
2023/05/05 03:31:54;;;;;;;8.32;3.92;;;8.30;68.80;;;;;;5089388;28;20116;-84
2023/05/05 03:34:20;;;;;;;8.65;3.33;;;8.30;69.30;;;;;;5109567;28;20082;-85
2023/05/05 03:36:45;;;;;;;5.90;4.20;;;8.30;69.90;;;;;;5097893;28;20020;-86
2023/05/05 03:39:11;;;;;;;4.88;3.60;;;8.30;70.00;;;;;;5101285;28;20023;-84
2023/05/05 03:41:37;;;;;;;7.75;3.78;;;8.30;70.10;;;;;;5099543;28;20480;-85
2023/05/05 03:44:03;;;;;;;8.95;3.53;;;8.30;70.10;;;;;;5111974;28;20023;-85
2023/05/05 03:46:29;;;;;;;7.80;3.60;;;8.40;70.00;;;;;;5117540;28;20112;-87
2023/05/05 03:48:56;;;;;;;6.63;4.15;;;8.50;69.70;;;;;;5090313;28;20067;-87
2023/05/05 03:51:23;;;;;;;7.07;4.05;;;8.50;69.80;;;;;;5092910;28;20064;-85
2023/05/05 03:53:49;;;;;;;5.10;3.47;;;8.40;70.00;;;;;;5097449;28;20023;-86
2023/05/05 03:56:15;;;;;;;6.43;4.10;;;8.30;70.40;;;;;;5083456;28;20032;-85
2023/05/05 03:58:41;;;;;;;4.93;3.95;;;8.20;70.80;;;;;;5102545;28;20032;-86
2023/05/05 04:01:07;;;;;;;7.10;3.70;;;8.10;71.00;;;;;;5097641;28;20077;-83
2023/05/05 04:03:33;;;;;;;4.95;3.17;;;8.10;71.00;;;;;;5109270;28;20018;-85
2023/05/05 04:05:59;;;;;;;8.27;3.20;;;8.00;70.90;;;;;;5110101;28;20053;-85
2023/05/05 04:08:25;;;;;;;7.10;3.58;;;7.90;71.30;;;;;;5110837;28;20028;-86
2023/05/05 04:10:51;;;;;;;4.18;2.60;;;7.90;71.70;;;;;;5099941;28;20047;-87
2023/05/05 04:13:17;;;;;;;8.38;2.80;;;7.70;72.00;;;;;;5113524;28;20027;-86
2023/05/05 04:15:47;;;;;;;6.50;3.30;;;7.60;72.50;;;;;;5091760;28;20119;-85
2023/05/05 04:18:13;;;;;;;3.88;2.60;;;7.50;72.90;;;;;;5085978;28;20054;-83
2023/05/05 04:20:39;;;;;;;6.57;2.92;;;7.40;73.20;;;;;;5087077;28;20040;-84
2023/05/05 04:23:05;;;;;;;5.25;3.20;;;7.40;73.50;;;;;;5099476;28;20016;-86
2023/05/05 04:25:31;;;;;;;3.28;2.53;;;7.40;73.30;;;;;;5095314;28;20030;-84
2023/05/05 04:27:58;;;;;;;3.60;2.75;;;7.40;74.10;;;;;;5083295;28;20039;-87
2023/05/05 04:30:24;;;;;;;4.13;2.63;;;7.60;74.10;;;;;;5086689;28;20504;-87
2023/05/05 04:32:50;;;;;;;4.20;2.30;;;7.60;73.30;;;;;;5094952;28;20035;-84
2023/05/05 04:35:15;;;;;;;11.38;2.60;;;7.50;73.30;;;;;;5094674;28;20024;-84
2023/05/05 04:37:41;;;;;;;8.13;2.97;;;7.50;73.60;;;;;;5100495;28;20026;-85
2023/05/05 04:40:08;;;;;;;3.97;2.53;;;7.50;74.10;;;;;;5102280;28;20024;-87
2023/05/05 04:42:35;;;;;;;6.75;3.03;;;7.60;74.00;;;;;;5098238;28;20058;-85
2023/05/05 04:45:01;;;;;;;6.78;2.63;;;7.60;73.80;;;;;;5094524;28;20008;-84
2023/05/05 04:47:27;;;;;;;3.17;2.45;;;7.70;75.00;;;;;;5115701;28;20035;-85
2023/05/05 04:49:55;;;;;;;7.07;3.00;;;8.20;73.60;;;;;;5105707;28;20036;-85
2023/05/05 04:52:21;;;;;;;6.07;2.28;;;8.50;71.00;;;;;;5101189;28;20076;-84
2023/05/05 04:54:47;;;;;;;4.32;2.38;;;8.50;70.60;;;;;;5100897;28;20481;-87
2023/05/05 04:57:13;;;;;;;3.47;2.20;;;8.70;71.20;;;;;;5108374;28;20381;-84
2023/05/05 04:59:39;;;;;;;10.18;3.13;;;9.30;69.40;;;;;;5104239;28;20056;-84
2023/05/05 05:02:05;;;;;;;5.57;2.83;;;10.00;67.70;;;;;;5093727;28;20023;-86
2023/05/05 05:04:31;;;;;;;6.45;3.30;;;10.70;65.40;;;;;;5107829;28;20138;-83
2023/05/05 05:06:56;;;;;;;8.23;3.30;;;11.20;64.40;;;;;;5112562;28;20016;-84
2023/05/05 05:09:22;;;;;;;4.20;2.47;;;11.80;61.80;;;;;;5112670;28;20038;-84
2023/05/05 05:11:48;;;;;;;5.45;2.50;;;12.20;60.80;;;;;;5085780;28;20023;-86
2023/05/05 05:14:14;;;;;;;4.65;2.22;;;12.90;59.40;;;;;;5091286;28;20028;-86
2023/05/05 05:16:40;;;;;;;7.15;2.53;;;13.40;57.50;;;;;;5082468;28;20028;-87
2023/05/05 05:19:06;;;;;;;7.50;2.55;;;13.80;56.00;;;;;;5106211;28;20501;-88
2023/05/05 05:21:32;;;;;;;5.90;2.80;;;14.30;55.40;;;;;;5094863;28;20020;-86
2023/05/05 05:23:58;;;;;;;4.10;2.05;;;15.00;54.10;;;;;;5098657;28;20035;-86
2023/05/05 05:26:24;;;;;;;5.88;2.55;;;15.40;51.80;;;;;;5095271;28;20065;-86
2023/05/05 05:28:50;;;;;;;4.10;2.75;;;14.70;51.40;;;;;;5101957;28;20016;-85
2023/05/05 05:31:16;;;;;;;6.47;2.40;;;13.40;53.50;;;;;;5078719;28;20024;-86
2023/05/05 05:33:42;;;;;;;3.93;2.43;;;12.20;56.40;;;;;;5098946;28;20016;-84
2023/05/05 05:36:08;;;;;;;4.75;2.22;;;12.30;58.30;;;;;;5096003;28;20536;-87
2023/05/05 05:38:34;;;;;;;5.78;2.67;;;13.20;56.70;;;;;;5079282;28;20042;-85
2023/05/05 05:41:06;;;;;;;6.20;2.80;;;14.00;55.80;;;;;;5106985;28;20031;-89
2023/05/05 05:43:32;;;;;;;3.75;2.00;;;15.40;52.70;;;;;;5115546;28;20026;-85
2023/05/05 05:45:57;;;;;;;3.53;2.53;;;15.30;51.30;;;;;;5105922;28;20079;-87
2023/05/05 05:48:27;;;;;;;3.83;2.70;;;14.40;52.10;;;;;;5095630;28;20161;-85
2023/05/05 05:50:53;;;;;;;2.63;2.13;;;13.20;53.80;;;;;;5111901;28;20032;-85
2023/05/05 05:53:22;;;;;;;4.65;2.60;;;12.10;56.40;;;;;;5098260;28;20040;-79
2023/05/05 05:55:48;;;;;;;5.47;2.65;;;11.40;58.40;;;;;;5092610;28;20495;-83
2023/05/05 05:58:15;;;;;;;4.10;2.40;;;10.90;60.00;;;;;;5074551;28;20032;-84
2023/05/05 06:00:43;;;;;;;6.20;2.72;;;10.50;60.90;;;;;;5074485;28;20056;-83
2023/05/05 06:03:12;;;;;;;4.53;2.50;;;10.10;62.40;;;;;;5075003;28;20047;-83
2023/05/05 06:05:38;;;;;;;8.25;2.83;;;9.70;63.60;;;;;;5094460;28;20024;-84
2023/05/05 06:08:04;;;;;;;8.10;3.28;;;9.40;64.70;;;;;;5096769;28;20480;-84
2023/05/05 06:10:30;;;;;;;6.47;3.35;;;9.30;65.90;;;;;;5092916;28;20401;-82
2023/05/05 06:12:56;;;;;;;6.95;3.40;;;9.40;66.10;;;;;;5092585;28;20028;-83
2023/05/05 06:15:22;;;;;;;7.60;2.97;;;9.50;66.10;;;;;;5074337;28;20111;-82
2023/05/05 06:17:47;;;;;;;9.60;2.80;;;9.60;65.80;;;;;;5093088;28;20031;-83
2023/05/05 06:20:13;;;;;;;5.18;2.58;;;9.80;65.10;;;;;;5093031;28;20024;-82
2023/05/05 06:22:40;;;;;;;4.38;2.83;;;9.70;65.00;;;;;;5079101;28;20586;-81
2023/05/05 06:25:08;;;;;;;5.47;3.88;;;9.70;65.00;;;;;;5092821;28;20039;-82
2023/05/05 06:27:35;;;;;;;5.50;2.67;;;9.70;65.20;;;;;;5099246;28;20019;-84
2023/05/05 06:30:01;;;;;;;9.38;3.17;;;9.60;65.10;;;;;;5082057;28;20075;-82
2023/05/05 06:32:27;;;;;;;3.20;2.53;;;9.50;65.60;;;;;;5075034;28;20428;-83
2023/05/05 06:34:53;;;;;;;7.68;2.92;;;9.30;65.90;;;;;;5083674;28;20024;-83
2023/05/05 06:37:19;;;;;;;5.00;2.85;;;9.20;66.30;;;;;;5104796;28;20027;-83
2023/05/05 06:39:45;;;;;;;5.97;2.70;;;9.20;66.50;;;;;;5085691;28;20031;-85
2023/05/05 06:42:11;;;;;;;7.35;2.70;;;9.20;66.60;;;;;;5095750;28;20036;-83
2023/05/05 06:44:37;;;;;;;4.10;3.05;;;9.40;66.60;;;;;;5095372;28;20069;-82
2023/05/05 06:47:03;;;;;;;5.30;2.90;;;9.70;65.90;;;;;;5094314;28;20020;-83
2023/05/05 06:49:29;;;;;;;3.58;2.40;;;10.00;64.80;;;;;;5101872;28;20027;-83
2023/05/05 06:51:55;;;;;;;6.53;3.00;;;10.20;64.00;;;;;;5088585;28;20027;-82
2023/05/05 06:54:21;;;;;;;13.15;6.05;;;10.50;63.30;;;;;;5109021;28;20020;-83
2023/05/05 06:56:47;;;;;;;4.60;2.35;;;11.30;62.40;;;;;;5111189;28;20024;-82
2023/05/05 06:59:13;;;;;;;5.70;2.47;;;11.90;59.60;;;;;;5107046;28;20075;-83
2023/05/05 07:01:39;;;;;;;6.10;2.53;;;12.20;58.20;;;;;;5099445;28;20024;-83
2023/05/05 07:04:05;;;;;;;4.68;2.58;;;12.30;58.00;;;;;;5111866;28;20030;-84
2023/05/05 07:06:31;;;;;;;4.38;2.85;;;12.50;57.10;;;;;;5115482;28;20030;-84
2023/05/05 07:08:57;;;;;;;6.85;2.60;;;12.50;57.30;;;;;;5107244;28;20087;-81
2023/05/05 07:11:23;;;;;;;4.35;2.50;;;12.40;57.40;;;;;;5090697;28;20057;-82
2023/05/05 07:13:49;;;;;;;7.75;3.83;;;12.50;57.30;;;;;;5123242;28;20456;-83
2023/05/05 07:16:15;;;;;;;3.95;2.97;;;12.60;56.90;;;;;;5113900;28;20016;-81
2023/05/05 07:18:41;;;;;;;5.25;2.63;;;12.60;57.00;;;;;;5115374;28;20069;-82
2023/05/05 07:21:07;;;;;;;3.85;2.35;;;12.50;57.20;;;;;;5105540;28;20414;-82
2023/05/05 07:23:33;;;;;;;4.57;3.00;;;12.10;57.00;;;;;;5084933;28;20035;-84
2023/05/05 07:25:59;;;;;;;5.30;2.60;;;11.60;58.10;;;;;;5087589;28;20468;-83
2023/05/05 07:28:25;;;;;;;6.00;2.88;;;11.30;58.90;;;;;;5086067;28;20416;-83
2023/05/05 07:30:51;;;;;;;6.80;2.83;;;11.40;59.40;;;;;;5087305;28;20054;-83
2023/05/05 07:33:19;;;;;;;6.07;2.88;;;11.80;58.60;;;;;;5088657;28;20040;-83
2023/05/05 07:35:45;;;;;;;5.80;2.78;;;11.90;58.00;;;;;;5109320;28;20500;-84
2023/05/05 07:38:11;;;;;;;5.43;3.00;;;11.80;58.80;;;;;;5114865;28;20468;-83
2023/05/05 07:40:37;;;;;;;7.70;2.90;;;11.80;57.90;;;;;;5094798;28;20038;-84
2023/05/05 07:43:03;;;;;;;7.10;2.78;;;11.60;58.60;;;;;;5110741;28;20016;-83
2023/05/05 07:45:30;;;;;;;4.55;2.78;;;11.50;58.60;;;;;;5084690;28;20031;-83
2023/05/05 07:47:56;;;;;;;5.85;2.83;;;11.10;59.10;;;;;;5103313;28;20015;-82
2023/05/05 07:50:23;;;;;;;7.70;3.15;;;10.80;60.00;;;;;;5093536;28;20504;-83
2023/05/05 07:52:49;;;;;;;8.05;3.17;;;10.50;61.10;;;;;;5100600;28;20381;-82
2023/05/05 07:55:15;;;;;;;12.73;4.00;;;10.20;62.30;;;;;;5083588;28;20560;-82
2023/05/05 07:57:44;;;;;;;6.63;2.85;;;10.10;62.90;;;;;;5104225;28;20034;-80
2023/05/05 08:00:12;;;;;;;7.88;2.78;;;10.00;63.30;;;;;;5099197;28;20520;-83
2023/05/05 08:02:41;;;;;;;2.47;2.20;;;9.80;64.30;;;;;;5077252;28;20026;-83
2023/05/05 08:05:07;;;;;;;3.38;2.67;;;9.60;64.00;;;;;;5111389;28;20106;-86
2023/05/05 08:07:35;;;;;;;4.90;2.72;;;9.10;65.30;;;;;;5088785;28;20366;-83
2023/05/05 08:10:01;;;;;;;6.65;2.95;;;8.90;66.30;;;;;;5100269;28;20028;-83
2023/05/05 08:12:26;;;;;;;7.63;3.47;;;8.80;67.10;;;;;;5098198;28;20138;-84
2023/05/05 08:14:52;;;;;;;6.78;3.42;;;8.90;67.00;;;;;;5100690;28;20070;-83
2023/05/05 08:17:18;;;;;;;3.53;2.65;;;9.10;66.30;;;;;;5089426;28;20036;-84
2023/05/05 08:19:44;;;;;;;5.07;3.72;;;9.10;66.00;;;;;;5095596;28;20016;-83
2023/05/05 08:22:10;;;;;;;7.30;2.90;;;9.00;66.10;;;;;;5081209;28;20015;-83
2023/05/05 08:24:36;;;;;;;4.75;3.13;;;9.00;66.30;;;;;;5107054;28;20096;-83
2023/05/05 08:27:02;;;;;;;7.70;3.72;;;9.00;66.30;;;;;;5099181;28;20076;-85
2023/05/05 08:29:28;;;;;;;8.77;3.53;;;9.10;66.20;;;;;;5107425;28;20030;-82
2023/05/05 08:31:54;;;;;;;7.25;2.88;;;9.00;66.40;;;;;;5102294;28;20473;-83
2023/05/05 08:34:20;;;;;;;4.93;3.17;;;9.00;66.60;;;;;;5096011;28;20024;-82
2023/05/05 08:36:47;;;;;;;6.05;2.88;;;9.10;67.00;;;;;;5087752;28;20035;-84
2023/05/05 08:39:13;;;;;;;2.50;2.30;;;9.20;67.20;;;;;;5076287;28;20028;-84
2023/05/05 08:41:39;;;;;;;5.13;2.47;;;9.40;66.70;;;;;;5086569;28;20373;-85
2023/05/05 08:44:07;;;;;;;2.90;2.42;;;9.30;66.70;;;;;;5097564;28;20028;-84
2023/05/05 08:46:35;;;;;;;4.95;3.20;;;9.10;66.90;;;;;;5075969;28;20028;-84
2023/05/05 08:49:02;;;;;;;;;;;9.00;67.30;;;;;;5094867;28;20027;-85
2023/05/05 08:51:36;;;;;;;7.93;3.00;;;9.10;67.20;;;;;;5094355;28;19914;-83
2023/05/05 08:54:04;;;;;;;3.65;1.92;;;9.10;67.70;;;;;;5075872;28;20429;-84
2023/05/05 08:56:39;;;;;;;4.63;3.08;;;9.20;66.70;;;;;;5075923;28;20028;-83
2023/05/05 08:59:07;;;;;;;5.10;3.03;;;8.80;67.70;;;;;;5095006;28;20043;-85
2023/05/05 09:01:35;;;;;;;8.00;3.83;;;8.60;68.00;;;;;;5075904;28;20118;-83
2023/05/05 09:04:03;;;;;;;7.93;3.45;;;8.50;68.10;;;;;;5075982;28;20016;-83
2023/05/05 09:06:31;;;;;;;8.43;3.25;;;8.40;68.90;;;;;;5077359;28;20035;-83
2023/05/05 09:08:57;;;;;;;6.07;3.75;;;8.40;69.10;;;;;;5107957;28;20019;-85
2023/05/05 09:11:23;;;;;;;4.55;3.03;;;8.40;69.10;;;;;;5083397;28;20028;-84
2023/05/05 09:13:49;;;;;;;7.40;3.47;;;8.50;68.00;;;;;;5096595;28;20061;-84
2023/05/05 09:16:15;;;;;;;4.25;2.50;;;8.40;68.30;;;;;;5093470;28;20028;-83
2023/05/05 09:18:41;;;;;;;6.10;3.03;;;8.20;68.80;;;;;;5076316;28;20041;-83
2023/05/05 09:21:24;;;;;;;4.75;3.63;;;8.10;68.70;;;;;;5093551;28;20027;-84
2023/05/05 09:24:10;;;;;;;5.10;2.60;;;8.10;68.90;;;;;;5097533;28;20034;-82
2023/05/05 09:26:44;;;;;;;4.15;2.88;;;8.00;68.60;;;;;;5094979;28;20020;-82
2023/05/05 09:29:20;;;;;;;4.22;2.17;;;7.90;68.70;;;;;;5082237;28;20028;-83
2023/05/05 09:32:07;;;;;;;3.97;2.55;;;8.00;68.20;;;;;;5101098;28;20024;-83
2023/05/05 09:34:36;;;;;;;6.25;2.80;;;8.30;67.20;;;;;;5100003;28;20038;-82
2023/05/05 09:37:02;;;;;;;3.60;2.70;;;8.50;66.60;;;;;;5078457;28;20024;-84
2023/05/05 09:39:28;;;;;;;3.65;2.20;;;8.70;66.20;;;;;;5076210;28;20127;-82
2023/05/05 09:41:54;;;;;;;5.38;2.70;;;8.90;65.90;;;;;;5096246;28;20073;-84
2023/05/05 09:44:34;;;;;;;3.15;2.63;;;8.90;64.50;;;;;;5094208;28;20024;-84
2023/05/05 09:47:01;;;;;;;4.05;2.72;;;9.50;64.70;;;;;;5095830;28;20431;-85
2023/05/05 09:49:27;;;;;;;3.22;2.53;;;10.70;61.80;;;;;;5098282;28;20395;-83
2023/05/05 09:51:54;;;;;;;5.18;2.70;;;12.20;57.30;;;;;;5102924;28;20020;-83
2023/05/05 09:54:25;;;;;;;5.40;2.38;;;13.00;54.50;;;;;;5093135;28;20504;-82
2023/05/05 09:56:52;;;;;;;4.38;2.58;;;13.20;52.40;;;;;;5092970;28;20016;-84
2023/05/05 09:59:19;;;;;;;7.32;2.63;;;13.30;53.10;;;;;;5093207;28;20047;-82
2023/05/05 10:01:45;;;;;;;5.93;3.33;;;13.40;51.90;;;;;;5107125;28;20103;-85
2023/05/05 10:04:30;;;;;;;5.85;3.10;;;13.10;51.80;;;;;;5099146;28;20016;-83
2023/05/05 10:06:57;;;;;;;5.43;2.80;;;12.30;53.10;;;;;;5098781;28;20016;-83
2023/05/05 10:09:25;;;;;;;4.05;3.03;;;11.60;55.10;;;;;;5102549;28;20089;-82
2023/05/05 10:11:51;;;;;;;5.93;3.50;;;11.10;56.70;;;;;;5080749;28;20039;-81
2023/05/05 10:14:18;;;;;;;5.07;2.80;;;10.70;56.80;;;;;;5092726;28;20032;-84
2023/05/05 10:16:51;;;;;;;7.38;3.17;;;10.30;57.60;;;;;;5093227;28;20020;-84
2023/05/05 10:19:18;;;;;;;4.18;2.88;;;9.90;59.10;;;;;;5076576;28;20101;-83
2023/05/05 10:21:51;;;;;;;;;;;9.50;59.80;;;;;;5084591;28;20024;-83
2023/05/05 10:24:39;;;;;;;3.72;2.72;;;9.20;60.30;;;;;;5098279;28;19951;-84
2023/05/05 10:27:16;;;;;;;5.80;3.38;;;8.80;61.90;;;;;;5075274;28;20024;-82
2023/05/05 10:29:49;;;;;;;4.70;2.63;;;8.60;63.10;;;;;;5078899;28;20122;-85
2023/05/05 10:32:25;;;;;;;5.68;3.03;;;8.40;63.60;;;;;;5098037;28;20022;-84
2023/05/05 10:35:02;;;;;;;6.68;3.08;;;8.20;64.40;;;;;;5097028;28;20026;-83
2023/05/05 10:37:29;;;;;;;5.72;3.28;;;8.10;64.80;;;;;;5079398;28;20097;-84
2023/05/05 10:39:56;;;;;;;7.00;2.77;;;8.10;64.90;;;;;;5100036;28;20032;-84
2023/05/05 10:42:23;;;;;;;5.07;3.50;;;8.30;64.80;;;;;;5098551;28;20020;-83
2023/05/05 10:44:50;;;;;;;8.93;4.03;;;8.60;63.70;;;;;;5099500;28;20107;-82
2023/05/05 10:47:20;;;;;;;4.40;3.60;;;8.80;63.10;;;;;;5104020;28;20020;-84
2023/05/05 10:49:52;;;;;;;3.58;2.75;;;8.90;62.80;;;;;;5082281;28;20036;-84
2023/05/05 10:52:59;;;;;;;3.58;2.75;;;8.90;61.80;;;;;;5097763;28;20060;-83
2023/05/05 10:55:47;;;;;;;7.55;2.90;;;8.80;61.00;;;;;;5051319;28;20028;-84
2023/05/05 10:58:49;;;;;;;3.67;2.83;;;8.60;60.90;;;;;;5078926;28;20023;-83
2023/05/05 11:01:28;;;;;;;5.47;3.28;;;8.60;60.70;;;;;;5027216;28;20036;-82
2023/05/05 11:04:19;;;;;;;4.60;2.83;;;8.50;60.40;;;;;;5021958;28;20095;-85
2023/05/05 11:07:06;;;;;;;5.50;3.35;;;8.50;60.60;;;;;;5017352;28;20021;-83
2023/05/05 11:09:40;;;;;;;5.05;3.50;;;8.40;61.00;;;;;;5014649;28;20038;-83
2023/05/05 11:12:07;;;;;;;5.38;3.58;;;8.30;61.20;;;;;;5018917;28;20152;-82
2023/05/05 11:14:33;;;;;;;5.03;3.20;;;8.20;61.60;;;;;;5022628;28;20160;-83
2023/05/05 11:16:59;;;;;;;8.35;2.75;;;8.20;62.20;;;;;;5037257;28;20097;-83
2023/05/05 11:19:47;;;;;;;5.65;2.97;;;8.20;62.40;;;;;;5027546;28;20056;-84
2023/05/05 11:22:15;;;;;;;6.22;2.72;;;8.30;62.30;;;;;;5037118;28;20607;-82
2023/05/05 11:24:41;;;;;;;5.10;2.67;;;8.20;62.60;;;;;;5034380;28;20026;-82
2023/05/05 11:27:07;;;;;;;5.05;3.25;;;8.00;63.10;;;;;;5014817;28;20102;-84
2023/05/05 11:30:08;;;;;;;5.68;3.38;;;7.90;63.30;;;;;;5007288;28;20034;-83
2023/05/05 11:32:34;;;;;;;6.38;3.05;;;7.90;63.80;;;;;;5028809;28;20029;-83
2023/05/05 11:35:01;;;;;;;3.53;2.55;;;8.10;63.40;;;;;;5047987;28;20123;-83
2023/05/05 11:37:30;;;;;;;4.07;2.53;;;8.20;62.90;;;;;;5096668;28;20024;-83
2023/05/05 11:40:02;;;;;;;4.45;2.58;;;8.20;62.90;;;;;;5079409;28;20034;-82
2023/05/05 11:42:29;;;;;;;4.35;2.78;;;8.10;62.60;;;;;;5097155;28;20023;-83
2023/05/05 11:44:55;;;;;;;5.00;2.80;;;8.10;62.40;;;;;;5096017;28;20066;-81
2023/05/05 11:47:21;;;;;;;5.43;2.53;;;8.10;62.60;;;;;;5079412;28;20038;-84
2023/05/05 11:49:48;;;;;;;4.38;3.17;;;8.30;62.40;;;;;;5091791;28;20103;-83
2023/05/05 11:52:14;;;;;;;;;;;8.20;61.90;;;;;;5105583;28;20020;-84
2023/05/05 11:54:49;;;;;;;7.65;3.55;;;8.10;61.90;;;;;;5105070;28;20043;-84
2023/05/05 11:57:19;;;;;;;4.25;2.75;;;8.10;62.40;;;;;;5108150;28;20042;-83
2023/05/05 12:00:06;;;;;;;8.88;3.40;;;8.10;62.50;;;;;;5086218;28;20496;-82
2023/05/05 12:02:33;;;;;;;5.90;3.25;;;8.10;62.10;;;;;;5090028;28;20032;-82
2023/05/05 12:04:59;;;;;;;6.60;2.67;;;8.10;62.10;;;;;;5106766;28;20024;-83
2023/05/05 12:07:28;;;;;;;11.00;2.83;;;8.10;61.50;;;;;;5103695;28;20428;-84
2023/05/05 12:09:54;;;;;;;3.65;2.50;;;8.20;61.20;;;;;;5084379;28;20109;-83
2023/05/05 12:12:32;;;;;;;3.97;2.47;;;8.20;61.10;;;;;;5109959;28;20020;-83
2023/05/05 12:14:58;;;;;;;5.78;3.20;;;8.20;61.10;;;;;;5107190;28;20081;-83
2023/05/05 12:17:24;;;;;;;5.72;2.45;;;8.20;60.50;;;;;;5103887;28;20020;-84
2023/05/05 12:19:52;;;;;;;4.47;2.10;;;8.20;60.20;;;;;;5100125;28;20028;-83
2023/05/05 12:22:20;;;;;;;5.85;2.10;;;8.00;60.00;;;;;;5081872;28;20353;-83
2023/05/05 12:25:06;;;;;;;3.25;2.35;;;7.90;61.00;;;;;;5097500;28;20092;-82
2023/05/05 12:27:34;;;;;;;6.30;2.85;;;7.80;60.60;;;;;;5083718;28;20025;-83
2023/05/05 12:30:16;;;;;;;3.47;2.58;;;7.70;60.80;;;;;;5079611;28;20048;-83
2023/05/05 12:32:43;;;;;;;3.38;2.30;;;7.70;60.50;;;;;;5077635;28;20074;-83
2023/05/05 12:35:09;;;;;;;2.40;1.95;;;7.80;59.50;;;;;;5098610;28;20026;-83
2023/05/05 12:37:35;;;;;;;6.20;2.53;;;7.90;59.00;;;;;;5101173;28;20026;-83
2023/05/05 12:40:02;;;;;;;2.50;1.85;;;7.80;58.30;;;;;;5108778;28;20485;-84
2023/05/05 12:42:28;;;;;;;5.65;2.10;;;8.00;58.30;;;;;;5098580;28;20424;-82
2023/05/05 12:44:54;;;;;;;6.22;2.33;;;8.00;58.20;;;;;;5094801;28;20020;-83
2023/05/05 12:47:31;;;;;;;6.05;2.95;;;8.20;58.00;;;;;;5095315;28;20588;-83
2023/05/05 12:49:59;;;;;;;2.33;2.13;;;8.30;56.60;;;;;;5095064;28;20408;-84
2023/05/05 12:52:41;;;;;;;3.42;2.20;;;8.40;55.90;;;;;;5076297;28;20292;-84
2023/05/05 12:55:07;;;;;;;7.18;2.97;;;8.40;56.10;;;;;;5090882;28;20024;-84
2023/05/05 12:57:33;;;;;;;4.45;2.78;;;8.50;56.80;;;;;;5095251;28;20028;-84
2023/05/05 13:00:15;;;;;;;6.45;2.58;;;8.80;56.40;;;;;;5076356;28;20047;-84
2023/05/05 13:02:41;;;;;;;4.22;2.38;;;9.00;55.40;;;;;;5076028;28;20020;-86
2023/05/05 13:05:07;;;;;;;6.13;3.13;;;9.00;54.20;;;;;;5094362;28;20027;-83